Time;durP1;ratioP1;P1;durP2;ratioP2;P2;SDS_P1;SDS_P2;PMS_P1;PMS_P2;Temp;Humidity;BMP_temperature;BMP_pressure;BME280_temperature;BME280_humidity;BME280_pressure;Samples;Min_cycle;Max_cycle;Signal;HPM_P1;HPM_P2
2022/03/25 00:56:20;;;;;;;124.57;67.50;;;5.40;99.90;;;;;;6201069;22;20020;-73
2022/03/25 00:58:46;;;;;;;113.60;62.65;;;5.30;99.90;;;;;;6219277;23;20027;-71
2022/03/25 01:01:12;;;;;;;105.78;59.08;;;5.30;99.90;;;;;;6243749;23;20007;-73
2022/03/25 01:03:38;;;;;;;110.47;61.97;;;5.30;99.90;;;;;;6243932;23;20012;-70
2022/03/25 01:06:04;;;;;;;111.80;62.70;;;5.20;99.90;;;;;;6218717;23;20048;-70
2022/03/25 01:08:29;;;;;;;112.63;63.88;;;5.20;99.90;;;;;;6218247;23;20024;-71
2022/03/25 01:10:56;;;;;;;108.93;61.20;;;5.20;99.90;;;;;;6218323;23;20031;-71
2022/03/25 01:13:22;;;;;;;119.95;65.93;;;5.10;99.90;;;;;;6244381;23;20036;-72
2022/03/25 01:15:48;;;;;;;134.05;72.00;;;5.10;99.90;;;;;;6244136;23;20015;-71
2022/03/25 01:18:14;;;;;;;130.40;71.15;;;5.10;99.90;;;;;;6214438;23;20060;-73
2022/03/25 01:20:50;;;;;;;129.00;70.97;;;5.10;99.90;;;;;;6218576;23;20027;-72
2022/03/25 01:23:16;;;;;;;129.60;70.80;;;5.10;99.90;;;;;;6193854;23;20024;-70
2022/03/25 01:25:42;;;;;;;130.40;72.38;;;5.00;99.90;;;;;;6244285;23;20021;-71
2022/03/25 01:28:08;;;;;;;334.73;78.63;;;5.00;99.90;;;;;;6243149;23;20060;-72
2022/03/25 01:30:33;;;;;;;127.47;71.03;;;5.00;99.90;;;;;;6243844;23;20012;-73
2022/03/25 01:32:59;;;;;;;793.25;99.93;;;4.90;99.90;;;;;;6218584;23;20012;-72
2022/03/25 01:35:27;;;;;;;623.70;92.45;;;4.90;99.90;;;;;;6217718;23;20013;-72
2022/03/25 01:37:52;;;;;;;253.10;74.80;;;4.90;99.90;;;;;;6213902;22;20021;-72
2022/03/25 01:40:18;;;;;;;255.48;69.28;;;4.80;99.90;;;;;;6242887;23;20011;-71
2022/03/25 01:42:44;;;;;;;297.33;78.90;;;4.80;99.90;;;;;;6218404;23;20045;-71
2022/03/25 01:45:11;;;;;;;357.48;79.78;;;4.70;99.90;;;;;;6243449;23;20027;-71
2022/03/25 01:47:38;;;;;;;144.48;69.88;;;4.70;99.90;;;;;;6242935;23;20012;-71
2022/03/25 01:50:17;;;;;;;118.30;67.05;;;4.70;99.90;;;;;;6217922;23;20008;-72
2022/03/25 01:52:44;;;;;;;531.15;84.20;;;4.70;99.90;;;;;;6217878;23;20001;-71
2022/03/25 01:55:16;;;;;;;125.28;66.53;;;4.60;99.90;;;;;;6192884;23;20020;-72
2022/03/25 01:57:43;;;;;;;450.83;76.57;;;4.70;99.90;;;;;;6193397;23;20024;-72
2022/03/25 02:00:09;;;;;;;131.48;66.43;;;4.70;99.90;;;;;;6218038;23;20017;-73
2022/03/25 02:02:37;;;;;;;120.18;64.45;;;4.70;99.90;;;;;;6239368;22;20013;-75
2022/03/25 02:05:03;;;;;;;131.77;66.97;;;4.70;99.90;;;;;;6243534;23;20016;-70
2022/03/25 02:07:29;;;;;;;117.85;66.38;;;4.70;99.90;;;;;;6218667;23;20016;-71
2022/03/25 02:09:56;;;;;;;166.50;69.50;;;4.70;99.90;;;;;;6242868;23;20016;-71
2022/03/25 02:12:22;;;;;;;120.80;65.03;;;4.70;99.90;;;;;;6217999;23;20019;-71
2022/03/25 02:14:49;;;;;;;166.40;66.80;;;4.70;99.90;;;;;;6193422;23;20028;-72
2022/03/25 02:17:15;;;;;;;767.47;94.93;;;4.70;99.90;;;;;;6218116;23;20020;-72
2022/03/25 02:19:41;;;;;;;108.65;64.85;;;4.70;99.90;;;;;;6243585;23;19997;-72
2022/03/25 02:22:08;;;;;;;111.88;63.97;;;4.60;99.90;;;;;;6217919;23;20028;-71
2022/03/25 02:24:35;;;;;;;138.20;65.28;;;4.60;99.90;;;;;;6218113;23;20019;-72
2022/03/25 02:27:02;;;;;;;211.02;66.97;;;4.60;99.90;;;;;;6218165;23;19996;-73
2022/03/25 02:29:28;;;;;;;696.45;92.68;;;4.60;99.90;;;;;;6217787;23;20073;-71
2022/03/25 02:31:53;;;;;;;111.65;63.88;;;4.60;99.90;;;;;;6217856;23;20017;-72
2022/03/25 02:34:19;;;;;;;659.83;91.07;;;4.60;99.90;;;;;;6243234;23;20021;-73
2022/03/25 02:36:46;;;;;;;111.25;62.08;;;4.50;99.90;;;;;;6243269;23;20031;-72
2022/03/25 02:39:14;;;;;;;214.55;64.75;;;4.50;99.90;;;;;;6217840;23;20027;-73
2022/03/25 02:41:41;;;;;;;111.35;62.95;;;4.50;99.90;;;;;;6192475;23;20068;-71
2022/03/25 02:44:08;;;;;;;109.15;62.53;;;4.50;99.90;;;;;;6217890;23;20021;-72
2022/03/25 02:46:33;;;;;;;441.92;71.65;;;4.50;99.90;;;;;;6217456;22;20031;-73
2022/03/25 02:49:03;;;;;;;120.35;62.28;;;4.50;99.90;;;;;;6243312;22;20012;-73
2022/03/25 02:51:29;;;;;;;301.75;70.38;;;4.40;99.90;;;;;;6242731;23;20032;-71
2022/03/25 02:53:56;;;;;;;106.10;62.30;;;4.40;99.90;;;;;;6242316;23;20017;-74
2022/03/25 02:56:22;;;;;;;182.18;62.53;;;4.40;99.90;;;;;;6216971;23;20017;-71
2022/03/25 02:58:48;;;;;;;134.35;61.50;;;4.40;99.90;;;;;;6217818;23;20005;-72
2022/03/25 03:01:15;;;;;;;108.47;60.50;;;4.40;99.90;;;;;;6217633;23;20026;-71
2022/03/25 03:03:41;;;;;;;105.95;60.35;;;4.40;99.90;;;;;;6243165;23;20016;-70
2022/03/25 03:06:07;;;;;;;142.52;61.45;;;4.40;99.90;;;;;;6217352;23;20039;-73
2022/03/25 03:08:35;;;;;;;242.35;65.95;;;4.40;99.90;;;;;;6243417;23;20021;-72
2022/03/25 03:11:01;;;;;;;107.80;59.92;;;4.40;99.90;;;;;;6216975;23;20022;-72
2022/03/25 03:13:27;;;;;;;104.40;59.85;;;4.40;99.90;;;;;;6217833;23;20012;-73
2022/03/25 03:15:53;;;;;;;155.10;58.92;;;4.30;99.90;;;;;;6217708;23;20052;-72
2022/03/25 03:18:22;;;;;;;425.38;69.47;;;4.30;99.90;;;;;;6243117;23;20024;-72
2022/03/25 03:20:48;;;;;;;102.30;59.30;;;4.30;99.90;;;;;;6217039;23;20013;-72
2022/03/25 03:23:14;;;;;;;108.47;60.70;;;4.20;99.90;;;;;;6217692;23;20007;-74
2022/03/25 03:25:40;;;;;;;124.15;62.50;;;4.20;99.90;;;;;;6217730;23;20016;-71
2022/03/25 03:28:07;;;;;;;283.05;65.03;;;4.20;99.90;;;;;;6217882;23;20016;-72
2022/03/25 03:30:33;;;;;;;619.03;78.30;;;4.20;99.90;;;;;;6217485;23;20042;-71
2022/03/25 03:33:04;;;;;;;457.30;76.15;;;4.10;99.90;;;;;;6242752;23;20000;-71
2022/03/25 03:35:32;;;;;;;647.92;81.95;;;4.00;99.90;;;;;;6242843;23;20004;-72
2022/03/25 03:37:58;;;;;;;449.58;70.47;;;4.00;99.90;;;;;;6216835;23;19997;-72
2022/03/25 03:40:25;;;;;;;116.93;61.60;;;4.00;99.90;;;;;;6217582;23;20020;-71
2022/03/25 03:42:51;;;;;;;960.83;97.75;;;3.90;99.90;;;;;;6242494;23;20088;-72
2022/03/25 03:45:17;;;;;;;204.80;62.95;;;3.90;99.90;;;;;;6242356;23;20013;-73
2022/03/25 03:47:44;;;;;;;645.17;81.63;;;3.90;99.90;;;;;;6217413;23;20007;-73
2022/03/25 03:50:13;;;;;;;335.27;65.47;;;3.80;99.90;;;;;;6217283;23;20005;-71
2022/03/25 03:52:40;;;;;;;118.80;58.10;;;3.80;99.90;;;;;;6242305;23;20017;-72
2022/03/25 03:55:07;;;;;;;134.40;60.03;;;3.80;99.90;;;;;;6242190;23;20012;-71
2022/03/25 03:57:34;;;;;;;552.90;76.20;;;3.80;99.90;;;;;;6192526;23;20023;-72
2022/03/25 04:00:01;;;;;;;444.60;65.63;;;3.80;99.90;;;;;;6243108;23;20040;-71
2022/03/25 04:02:26;;;;;;;322.65;63.92;;;3.80;99.90;;;;;;6217261;23;20066;-72
2022/03/25 04:04:52;;;;;;;102.40;53.92;;;3.70;99.90;;;;;;6216934;23;20023;-71
2022/03/25 04:07:19;;;;;;;89.25;55.10;;;3.70;99.90;;;;;;6217151;23;20023;-72
2022/03/25 04:09:45;;;;;;;196.82;61.35;;;3.70;99.90;;;;;;6217309;23;20016;-71
2022/03/25 04:12:13;;;;;;;255.40;62.65;;;3.70;99.90;;;;;;6242336;23;20016;-72
2022/03/25 04:14:39;;;;;;;140.63;57.60;;;3.70;99.90;;;;;;6216870;23;20005;-72
2022/03/25 04:17:04;;;;;;;90.57;55.15;;;3.70;99.90;;;;;;6217347;23;20018;-73
2022/03/25 04:19:31;;;;;;;96.25;56.38;;;3.70;99.90;;;;;;6212759;23;20021;-72
2022/03/25 04:21:59;;;;;;;116.50;57.60;;;3.70;99.90;;;;;;6241910;23;20064;-71
2022/03/25 04:24:25;;;;;;;90.82;55.03;;;3.70;99.90;;;;;;6218907;23;20027;-71
2022/03/25 04:26:51;;;;;;;658.10;78.35;;;3.70;99.90;;;;;;6219837;23;20016;-72
2022/03/25 04:29:18;;;;;;;490.42;69.45;;;3.60;99.90;;;;;;6218773;23;20016;-72
2022/03/25 04:31:44;;;;;;;154.40;53.65;;;3.60;99.90;;;;;;6244438;23;19997;-73
2022/03/25 04:34:10;;;;;;;707.33;79.25;;;3.50;99.90;;;;;;6218913;23;20023;-72
2022/03/25 04:36:36;;;;;;;80.97;52.13;;;3.50;99.90;;;;;;6219002;23;19997;-70
2022/03/25 04:39:02;;;;;;;190.93;52.72;;;3.50;99.90;;;;;;6219300;23;20020;-71
2022/03/25 04:41:28;;;;;;;112.55;50.95;;;3.40;99.90;;;;;;6219285;23;19996;-70
2022/03/25 04:43:54;;;;;;;274.25;64.60;;;3.40;99.90;;;;;;6219325;23;20016;-74
2022/03/25 04:46:19;;;;;;;93.13;53.33;;;3.40;99.90;;;;;;6244904;23;20017;-73
2022/03/25 04:48:45;;;;;;;93.93;55.30;;;3.30;99.90;;;;;;6219176;23;20027;-71
2022/03/25 04:51:11;;;;;;;111.95;53.67;;;3.30;99.90;;;;;;6218664;23;20013;-71
2022/03/25 04:53:38;;;;;;;168.30;57.80;;;3.30;99.90;;;;;;6218322;23;20046;-73
2022/03/25 04:56:04;;;;;;;708.42;83.90;;;3.30;99.90;;;;;;6218230;23;20028;-73
2022/03/25 04:58:30;;;;;;;123.95;57.63;;;3.30;99.90;;;;;;6218534;23;20021;-72
2022/03/25 05:00:56;;;;;;;110.30;53.53;;;3.30;99.90;;;;;;6244032;23;20061;-73
2022/03/25 05:03:22;;;;;;;541.13;75.80;;;3.30;99.90;;;;;;6218866;23;20023;-73
2022/03/25 05:05:48;;;;;;;267.38;65.68;;;3.30;99.90;;;;;;6218848;23;20020;-72
2022/03/25 05:08:14;;;;;;;241.85;59.15;;;3.20;99.90;;;;;;6218444;23;20004;-71
2022/03/25 05:10:40;;;;;;;186.82;58.95;;;3.20;99.90;;;;;;6218758;23;20044;-71
2022/03/25 05:13:11;;;;;;;96.75;55.58;;;3.20;99.90;;;;;;6218971;23;20004;-72
2022/03/25 05:15:40;;;;;;;133.27;57.88;;;3.20;99.90;;;;;;6243946;23;20005;-74
2022/03/25 05:18:05;;;;;;;211.38;60.10;;;3.20;99.90;;;;;;6243436;23;20044;-73
2022/03/25 05:20:31;;;;;;;203.70;58.13;;;3.20;99.90;;;;;;6243837;23;20048;-73
2022/03/25 05:22:57;;;;;;;157.20;57.85;;;3.20;99.90;;;;;;6243704;23;20072;-71
2022/03/25 05:25:22;;;;;;;97.97;55.75;;;3.20;99.90;;;;;;6218719;23;20020;-72
2022/03/25 05:28:00;;;;;;;354.05;68.32;;;3.20;99.90;;;;;;6219349;23;20024;-71
2022/03/25 05:30:27;;;;;;;134.40;57.40;;;3.30;99.90;;;;;;6193333;23;19996;-71
2022/03/25 05:32:57;;;;;;;549.03;77.20;;;3.20;99.90;;;;;;6193585;23;20001;-73
2022/03/25 05:35:28;;;;;;;137.55;56.58;;;3.20;99.90;;;;;;6218265;23;20001;-72
2022/03/25 05:37:54;;;;;;;424.90;70.35;;;3.30;99.90;;;;;;6193939;23;20021;-73
2022/03/25 05:40:21;;;;;;;485.52;70.05;;;3.20;99.90;;;;;;6218830;23;20016;-72
2022/03/25 05:42:49;;;;;;;346.30;62.95;;;3.20;99.90;;;;;;6218262;23;20001;-73
2022/03/25 05:45:17;;;;;;;95.28;55.55;;;3.30;99.90;;;;;;6218244;23;19997;-71
2022/03/25 05:47:43;;;;;;;402.80;72.63;;;3.30;99.90;;;;;;6192905;23;20035;-73
2022/03/25 05:50:11;;;;;;;443.13;75.30;;;3.30;99.90;;;;;;6243388;23;20000;-72
2022/03/25 05:52:38;;;;;;;176.73;60.10;;;3.40;99.90;;;;;;6193932;23;20019;-73
2022/03/25 05:55:04;;;;;;;605.42;86.65;;;3.40;99.90;;;;;;6193467;23;20020;-72
2022/03/25 05:57:31;;;;;;;384.95;71.70;;;3.40;99.90;;;;;;6243631;23;20015;-72
2022/03/25 05:59:58;;;;;;;595.13;85.28;;;3.40;99.90;;;;;;6218778;23;20020;-72
2022/03/25 06:02:25;;;;;;;364.67;69.28;;;3.50;99.90;;;;;;6243438;23;20001;-73
2022/03/25 06:04:52;;;;;;;117.85;59.22;;;3.50;99.90;;;;;;6243265;23;20027;-72
2022/03/25 06:07:20;;;;;;;112.25;61.13;;;3.50;99.90;;;;;;6218388;23;20012;-72
2022/03/25 06:09:47;;;;;;;121.35;57.95;;;3.50;99.90;;;;;;6218555;23;20020;-72
2022/03/25 06:12:13;;;;;;;322.27;67.55;;;3.60;99.90;;;;;;6218476;23;20039;-72
2022/03/25 06:14:39;;;;;;;128.70;60.47;;;3.60;99.90;;;;;;6218074;23;20017;-72
2022/03/25 06:17:05;;;;;;;109.57;59.60;;;3.60;99.90;;;;;;6243244;23;20012;-72
2022/03/25 06:19:32;;;;;;;240.57;66.80;;;3.60;99.90;;;;;;6243787;23;20039;-72
2022/03/25 06:21:59;;;;;;;112.35;61.97;;;3.70;99.90;;;;;;6217850;23;20026;-71
2022/03/25 06:24:25;;;;;;;100.03;57.90;;;3.70;99.90;;;;;;6217808;23;20048;-72
2022/03/25 06:26:53;;;;;;;110.55;60.25;;;3.70;99.90;;;;;;6243037;23;20012;-71
2022/03/25 06:29:19;;;;;;;112.22;58.08;;;3.80;99.90;;;;;;6217908;23;20021;-72
2022/03/25 06:31:46;;;;;;;108.57;56.22;;;3.90;99.90;;;;;;6217785;23;20040;-73
2022/03/25 06:34:20;;;;;;;375.30;72.28;;;3.90;99.90;;;;;;6193317;23;20001;-73
2022/03/25 06:36:50;;;;;;;131.23;59.08;;;4.00;99.90;;;;;;6217875;23;19996;-72
2022/03/25 06:39:16;;;;;;;110.82;58.80;;;4.00;99.90;;;;;;6243645;22;20095;-72
2022/03/25 06:41:42;;;;;;;144.63;60.88;;;4.10;99.90;;;;;;6218088;23;20029;-71
2022/03/25 06:44:12;;;;;;;116.65;56.70;;;4.00;99.90;;;;;;6218154;23;20017;-72
2022/03/25 06:46:41;;;;;;;132.63;57.50;;;4.10;99.90;;;;;;6242855;22;20024;-72
2022/03/25 06:49:07;;;;;;;197.02;62.38;;;4.10;99.90;;;;;;6217143;23;20362;-71
2022/03/25 06:51:33;;;;;;;96.90;55.80;;;4.20;99.90;;;;;;6217865;23;19996;-71
2022/03/25 06:53:59;;;;;;;333.25;68.13;;;4.20;99.90;;;;;;6192929;23;20054;-72
2022/03/25 06:56:26;;;;;;;119.40;56.67;;;4.20;99.90;;;;;;6188145;23;20005;-71
2022/03/25 06:58:52;;;;;;;95.22;55.35;;;4.30;99.90;;;;;;6193188;23;20011;-71
2022/03/25 07:01:18;;;;;;;125.43;57.00;;;4.30;99.90;;;;;;6217481;23;20013;-72
2022/03/25 07:03:44;;;;;;;108.72;55.63;;;4.40;99.90;;;;;;6242868;23;19996;-72
2022/03/25 07:06:10;;;;;;;168.73;61.75;;;4.40;99.90;;;;;;6217550;23;20006;-71
2022/03/25 07:08:39;;;;;;;194.82;65.20;;;4.40;99.90;;;;;;6217785;23;20072;-71
2022/03/25 07:31:48;;;;;;;116.97;62.85;;;5.10;99.90;;;;;;6220503;22;20028;-73
2022/03/25 07:34:14;;;;;;;117.65;62.95;;;5.20;99.90;;;;;;6192948;23;20025;-73
2022/03/25 07:36:42;;;;;;;116.40;63.25;;;5.40;99.90;;;;;;6217400;23;20044;-73
2022/03/25 07:39:08;;;;;;;116.03;62.05;;;5.50;99.90;;;;;;6208554;23;20008;-73
2022/03/25 07:41:34;;;;;;;113.43;62.45;;;5.70;99.90;;;;;;6217638;23;20016;-72
2022/03/25 07:44:03;;;;;;;112.25;60.47;;;5.90;99.90;;;;;;6217561;23;20016;-74
2022/03/25 07:46:29;;;;;;;115.78;58.63;;;6.10;99.90;;;;;;6192769;23;20024;-73
2022/03/25 07:48:55;;;;;;;112.95;60.40;;;6.20;99.90;;;;;;6217811;23;20016;-74
2022/03/25 07:51:21;;;;;;;103.72;54.67;;;6.40;99.90;;;;;;6242866;23;20039;-72
2022/03/25 07:53:47;;;;;;;104.28;58.08;;;6.60;99.90;;;;;;6218029;23;20463;-72
2022/03/25 07:56:14;;;;;;;101.18;53.88;;;6.80;99.90;;;;;;6243514;23;20020;-73
2022/03/25 23:02:05;;;;;;;36.55;20.38;;;7.00;99.90;;;;;;6236583;22;20029;-74
2022/03/25 23:04:32;;;;;;;41.30;20.38;;;6.90;99.90;;;;;;6243841;23;20068;-72
2022/03/25 23:07:02;;;;;;;37.75;21.10;;;6.90;99.90;;;;;;6218172;23;20013;-75
